Time;durP1;ratioP1;P1;durP2;ratioP2;P2;SDS_P1;SDS_P2;PMS_P1;PMS_P2;Temp;Humidity;BMP_temperature;BMP_pressure;BME280_temperature;BME280_humidity;BME280_pressure;Samples;Min_cycle;Max_cycle;Signal;HPM_P1;HPM_P2
2023/04/03 00:00:35;;;;;;;6.28;2.80;;;17.50;42.70;;;;;;5114363;28;20185;-72
2023/04/03 00:03:02;;;;;;;4.40;2.22;;;17.50;42.70;;;;;;5113875;28;20221;-72
2023/04/03 00:05:30;;;;;;;4.72;2.33;;;17.50;42.70;;;;;;5112900;28;20189;-75
2023/04/03 00:07:57;;;;;;;5.85;2.30;;;17.40;42.60;;;;;;5113950;28;20213;-72
2023/04/03 00:10:24;;;;;;;6.05;2.10;;;17.50;42.70;;;;;;5113788;28;20224;-73
2023/04/03 00:12:50;;;;;;;6.28;2.17;;;17.40;42.60;;;;;;5114191;28;20248;-72
2023/04/03 00:15:18;;;;;;;3.95;2.15;;;17.40;42.60;;;;;;5113952;28;20220;-74
2023/04/03 00:17:46;;;;;;;7.43;2.40;;;17.40;42.60;;;;;;5113631;28;20673;-74
2023/04/03 00:20:13;;;;;;;5.65;2.70;;;17.40;42.50;;;;;;5114113;28;20674;-72
2023/04/03 00:22:40;;;;;;;3.97;2.03;;;17.40;42.60;;;;;;5112574;28;20672;-72
2023/04/03 00:25:08;;;;;;;5.85;2.10;;;17.40;42.60;;;;;;5114099;28;20240;-72
2023/04/03 00:27:37;;;;;;;5.22;2.42;;;17.40;42.60;;;;;;5112267;28;20197;-74
2023/04/03 00:30:05;;;;;;;5.68;2.25;;;17.40;42.60;;;;;;5113648;28;20219;-72
2023/04/03 00:32:32;;;;;;;4.25;2.38;;;17.40;42.60;;;;;;5113573;28;20304;-74
2023/04/03 00:35:00;;;;;;;3.80;2.05;;;17.40;42.60;;;;;;5113568;28;20236;-74
2023/04/03 00:37:27;;;;;;;6.55;2.58;;;17.40;42.50;;;;;;5113233;28;20232;-74
2023/04/03 00:39:54;;;;;;;4.50;2.15;;;17.40;42.60;;;;;;5113556;28;20212;-74
2023/04/03 00:42:21;;;;;;;5.93;2.28;;;17.40;42.50;;;;;;5113529;28;20229;-75
2023/04/03 00:45:26;;;;;;;4.82;1.98;;;17.40;42.50;;;;;;5113462;28;20213;-74
2023/04/03 00:47:53;;;;;;;5.43;2.40;;;17.40;42.50;;;;;;5103708;28;20742;-74
2023/04/03 00:50:21;;;;;;;6.25;1.98;;;17.40;42.60;;;;;;5113299;28;20189;-74
2023/04/03 00:52:49;;;;;;;5.47;2.00;;;17.40;42.50;;;;;;5113371;28;20252;-74
2023/04/03 00:55:17;;;;;;;4.97;2.20;;;17.40;42.40;;;;;;5113392;28;20185;-74
2023/04/03 00:57:44;;;;;;;5.38;2.15;;;17.40;42.50;;;;;;5112930;28;20209;-74
2023/04/03 01:00:15;;;;;;;5.30;2.20;;;17.40;42.40;;;;;;5113247;28;20208;-75
2023/04/03 01:02:42;;;;;;;4.20;2.10;;;17.40;42.50;;;;;;5113204;28;20253;-74
2023/04/03 01:05:10;;;;;;;6.10;2.17;;;17.30;42.40;;;;;;5112935;28;20232;-74
2023/04/03 01:07:39;;;;;;;4.90;2.10;;;17.30;42.40;;;;;;5112845;28;20689;-74
2023/04/03 01:10:09;;;;;;;5.47;2.38;;;17.40;42.50;;;;;;5113147;28;20204;-72
2023/04/03 01:12:38;;;;;;;6.50;2.13;;;17.30;42.40;;;;;;5112928;28;20245;-73
2023/04/03 01:15:09;;;;;;;5.60;2.40;;;17.30;42.40;;;;;;5112648;28;20674;-74
2023/04/03 01:17:38;;;;;;;6.35;2.30;;;17.30;42.40;;;;;;5113259;28;20261;-74
2023/04/03 01:20:47;;;;;;;6.20;2.08;;;17.40;42.40;;;;;;5113045;28;20232;-75
2023/04/03 01:23:35;;;;;;;6.50;2.10;;;17.30;42.40;;;;;;5083191;28;20258;-74
2023/04/03 01:26:03;;;;;;;4.47;1.80;;;17.30;42.40;;;;;;5112880;28;20217;-74
2023/04/03 01:28:33;;;;;;;9.00;2.42;;;17.30;42.40;;;;;;5112911;28;20249;-72
2023/04/03 01:31:09;;;;;;;4.82;2.00;;;17.30;42.40;;;;;;5112414;28;20634;-74
2023/04/03 01:33:39;;;;;;;5.63;1.90;;;17.30;42.40;;;;;;5112377;28;20582;-74
2023/04/03 01:36:07;;;;;;;4.78;2.10;;;17.30;42.30;;;;;;5112815;28;20213;-72
2023/04/03 01:38:34;;;;;;;6.82;2.13;;;17.30;42.40;;;;;;5112800;28;20249;-73
2023/04/03 01:41:02;;;;;;;5.80;2.38;;;17.30;42.40;;;;;;5112740;28;20194;-72
2023/04/03 01:43:28;;;;;;;7.45;2.20;;;17.30;42.30;;;;;;5112531;28;20736;-72
2023/04/03 01:45:55;;;;;;;3.67;2.00;;;17.30;42.40;;;;;;5112599;28;20243;-75
2023/04/03 01:48:22;;;;;;;3.38;1.80;;;17.30;42.40;;;;;;5112754;28;20305;-74
2023/04/03 01:50:51;;;;;;;4.32;1.73;;;17.30;42.30;;;;;;5112634;28;20692;-74
2023/04/03 01:53:18;;;;;;;3.42;1.80;;;17.30;42.30;;;;;;5112269;28;20241;-74
2023/04/03 01:55:45;;;;;;;5.43;2.17;;;17.30;42.30;;;;;;5112251;28;20232;-72
2023/04/03 01:58:12;;;;;;;4.30;1.85;;;17.30;42.30;;;;;;5112218;28;20252;-72
2023/04/03 02:00:39;;;;;;;7.10;2.28;;;17.30;42.30;;;;;;5112530;28;20240;-74
2023/04/03 02:03:06;;;;;;;4.95;1.95;;;17.20;42.20;;;;;;5112251;28;20636;-72
2023/04/03 02:05:33;;;;;;;4.15;1.90;;;17.30;42.30;;;;;;5112390;28;20189;-75
2023/04/03 02:08:02;;;;;;;4.80;2.03;;;17.30;42.20;;;;;;5112239;28;20214;-75
2023/04/03 02:10:29;;;;;;;5.47;2.15;;;17.30;42.30;;;;;;5112476;28;20221;-74
2023/04/03 02:12:55;;;;;;;4.55;1.83;;;17.20;42.10;;;;;;5112102;28;20260;-74
2023/04/03 02:15:22;;;;;;;4.20;1.77;;;17.20;42.10;;;;;;5112346;28;20232;-74
2023/04/03 02:17:49;;;;;;;5.18;2.17;;;17.30;42.20;;;;;;5112402;28;20252;-74
2023/04/03 02:20:16;;;;;;;4.57;2.20;;;17.20;42.10;;;;;;5112473;28;20217;-74
2023/04/03 02:22:43;;;;;;;4.75;2.03;;;17.20;42.10;;;;;;5112006;28;20728;-74
2023/04/03 02:25:12;;;;;;;4.60;1.90;;;17.20;42.10;;;;;;5112602;28;20205;-74
2023/04/03 02:27:39;;;;;;;5.35;2.22;;;17.20;42.10;;;;;;5111991;28;20189;-74
2023/04/03 02:30:09;;;;;;;6.75;2.10;;;17.20;42.10;;;;;;5111923;28;20235;-72
2023/04/03 02:32:36;;;;;;;5.03;2.00;;;17.20;42.10;;;;;;5112183;28;20635;-74
2023/04/03 02:35:03;;;;;;;3.47;1.70;;;17.20;42.00;;;;;;5112151;28;20228;-72
2023/04/03 02:37:30;;;;;;;6.10;1.80;;;17.20;42.10;;;;;;5112390;28;20219;-74
2023/04/03 02:39:57;;;;;;;4.38;2.03;;;17.30;42.10;;;;;;5112234;28;20213;-74
2023/04/03 02:42:25;;;;;;;2.55;1.58;;;17.20;42.00;;;;;;5112188;28;20266;-74
2023/04/03 02:44:52;;;;;;;6.38;2.03;;;17.20;42.00;;;;;;5112063;28;20244;-74
2023/04/03 02:47:19;;;;;;;4.97;2.00;;;17.20;42.00;;;;;;5114975;28;20255;-74
2023/04/03 02:49:46;;;;;;;6.88;2.10;;;17.20;42.00;;;;;;5115770;28;20253;-74
2023/04/03 02:52:13;;;;;;;7.53;2.15;;;17.20;42.00;;;;;;5115651;28;20252;-74
2023/04/03 02:54:40;;;;;;;4.55;1.75;;;17.20;41.90;;;;;;5115562;28;20368;-74
2023/04/03 02:57:08;;;;;;;4.10;1.90;;;17.20;42.00;;;;;;5115744;28;20228;-74
2023/04/03 02:59:40;;;;;;;5.15;1.70;;;17.20;41.90;;;;;;5115381;28;20220;-74
2023/04/03 03:02:07;;;;;;;4.70;2.10;;;17.20;41.90;;;;;;5115569;28;20181;-74
2023/04/03 03:04:34;;;;;;;4.60;1.80;;;17.20;42.60;;;;;;5115519;28;20646;-74
2023/04/03 03:07:01;;;;;;;4.45;1.42;;;17.20;41.90;;;;;;5115534;28;20185;-74
2023/04/03 03:09:29;;;;;;;5.13;1.75;;;17.20;41.90;;;;;;5115646;28;20256;-74
2023/04/03 03:11:56;;;;;;;3.38;1.90;;;17.20;41.90;;;;;;5115833;28;20224;-74
2023/04/03 03:14:23;;;;;;;7.47;1.65;;;17.20;41.90;;;;;;5115341;28;20293;-74
2023/04/03 03:16:51;;;;;;;4.18;1.70;;;17.20;41.80;;;;;;5115216;28;20225;-74
2023/04/03 03:19:18;;;;;;;4.50;1.70;;;17.10;41.80;;;;;;5114905;28;20245;-74
2023/04/03 03:21:45;;;;;;;4.38;1.83;;;17.20;41.90;;;;;;5114875;28;20268;-74
2023/04/03 03:24:13;;;;;;;3.45;1.75;;;17.10;41.80;;;;;;5115187;28;20252;-74
2023/04/03 03:26:40;;;;;;;5.80;1.67;;;17.10;41.70;;;;;;5114807;28;20272;-74
2023/04/03 03:29:07;;;;;;;3.90;1.60;;;17.10;41.70;;;;;;5115114;28;20228;-74
2023/04/03 03:31:34;;;;;;;6.43;1.58;;;17.20;41.80;;;;;;5114843;28;20241;-74
2023/04/03 03:34:02;;;;;;;4.43;1.80;;;17.10;41.70;;;;;;5114887;28;20296;-74
2023/04/03 03:36:29;;;;;;;4.43;1.70;;;17.10;41.70;;;;;;5114863;28;20246;-74
2023/04/03 03:38:56;;;;;;;2.88;1.60;;;17.10;41.70;;;;;;5114482;28;20209;-74
2023/04/03 03:41:23;;;;;;;4.80;1.63;;;17.10;41.70;;;;;;5113438;28;20197;-74
2023/04/03 03:43:50;;;;;;;4.30;1.50;;;17.10;41.60;;;;;;5114806;28;20240;-74
2023/04/03 03:46:17;;;;;;;4.50;2.17;;;17.10;41.60;;;;;;5116619;27;20482;-74
2023/04/03 03:48:44;;;;;;;5.22;2.00;;;17.10;41.60;;;;;;5126389;27;20694;-74
2023/04/03 03:51:13;;;;;;;4.85;1.58;;;17.10;41.60;;;;;;5114335;28;20651;-74
2023/04/03 03:53:40;;;;;;;4.20;1.60;;;17.10;41.70;;;;;;5114302;28;20272;-74
2023/04/03 03:56:07;;;;;;;5.78;1.70;;;17.10;41.60;;;;;;5114403;28;20213;-74
2023/04/03 03:58:34;;;;;;;3.72;1.48;;;17.10;41.60;;;;;;5114273;28;20190;-74
2023/04/03 04:01:02;;;;;;;4.45;1.42;;;17.10;41.60;;;;;;5114395;28;20223;-74
2023/04/03 04:03:29;;;;;;;4.95;1.65;;;17.10;41.60;;;;;;5114688;28;20194;-74
2023/04/03 04:05:56;;;;;;;4.18;1.48;;;17.10;41.60;;;;;;5114218;28;20193;-74
2023/04/03 04:08:25;;;;;;;2.60;1.55;;;17.10;41.60;;;;;;5113953;28;20221;-74
2023/04/03 04:10:52;;;;;;;4.80;1.85;;;17.10;41.60;;;;;;5114144;28;20196;-74
2023/04/03 04:13:19;;;;;;;4.53;1.92;;;17.10;41.60;;;;;;5114045;28;20277;-74
2023/04/03 04:15:46;;;;;;;2.53;1.50;;;17.10;41.50;;;;;;5114002;28;20209;-74
2023/04/03 04:18:13;;;;;;;8.70;1.73;;;17.10;41.50;;;;;;5114305;28;20193;-74
2023/04/03 04:20:40;;;;;;;4.32;1.80;;;17.10;41.50;;;;;;5113505;28;20215;-74
2023/04/03 04:23:07;;;;;;;4.10;1.58;;;17.10;41.50;;;;;;5113579;28;20231;-74
2023/04/03 04:25:35;;;;;;;3.83;1.45;;;17.10;41.50;;;;;;5113761;28;20235;-74
2023/04/03 04:28:02;;;;;;;4.47;1.55;;;17.10;41.40;;;;;;5113873;28;20220;-74
2023/04/03 04:30:29;;;;;;;3.63;1.70;;;17.10;41.40;;;;;;5113712;28;20221;-75
2023/04/03 04:32:56;;;;;;;3.60;1.90;;;17.10;41.40;;;;;;5113377;28;20271;-74
2023/04/03 04:35:23;;;;;;;4.20;1.40;;;17.10;41.40;;;;;;5113315;28;20229;-74
2023/04/03 04:37:50;;;;;;;3.13;1.48;;;17.10;41.40;;;;;;5113436;28;20221;-74
2023/04/03 04:40:17;;;;;;;4.00;1.50;;;17.00;41.30;;;;;;5113861;28;20225;-74
2023/04/03 04:42:46;;;;;;;3.22;1.50;;;17.10;41.40;;;;;;5113663;28;20220;-74
2023/04/03 04:45:13;;;;;;;3.25;1.55;;;17.10;41.40;;;;;;5113520;28;20199;-74
2023/04/03 04:47:40;;;;;;;4.05;1.50;;;17.10;41.30;;;;;;5113434;28;20212;-74
2023/04/03 04:50:08;;;;;;;4.57;1.50;;;17.00;41.30;;;;;;5113435;28;20225;-74
2023/04/03 04:52:35;;;;;;;3.60;1.80;;;17.10;41.40;;;;;;5113275;28;20205;-74
2023/04/03 04:55:02;;;;;;;3.00;1.48;;;17.10;41.40;;;;;;5113089;28;20619;-74
2023/04/03 04:57:29;;;;;;;3.72;1.83;;;17.10;41.40;;;;;;5112946;28;20228;-74
2023/04/03 04:59:57;;;;;;;4.10;1.55;;;17.10;41.40;;;;;;5112959;28;20181;-74
2023/04/03 05:02:24;;;;;;;5.60;1.73;;;17.10;41.40;;;;;;5113208;28;20197;-74
2023/04/03 05:04:51;;;;;;;4.05;1.50;;;17.10;41.40;;;;;;5112883;28;20716;-74
2023/04/03 05:07:18;;;;;;;4.55;1.88;;;17.20;41.40;;;;;;5112910;28;20224;-74
2023/04/03 05:09:45;;;;;;;4.55;1.42;;;17.20;41.40;;;;;;5112612;28;20221;-74
2023/04/03 05:12:12;;;;;;;4.97;2.17;;;17.20;41.40;;;;;;5113057;28;20248;-74
2023/04/03 05:14:39;;;;;;;5.43;1.77;;;17.20;41.40;;;;;;5112946;28;20224;-74
2023/04/03 05:17:08;;;;;;;3.70;1.40;;;17.20;41.40;;;;;;5112991;28;20213;-74
2023/04/03 05:19:35;;;;;;;3.17;1.48;;;17.30;41.60;;;;;;5112709;28;20658;-75
2023/04/03 05:22:02;;;;;;;3.83;1.70;;;17.30;41.50;;;;;;5112639;28;20278;-74
2023/04/03 05:24:29;;;;;;;6.32;1.75;;;17.30;41.50;;;;;;5113113;28;20197;-74
2023/04/03 05:26:56;;;;;;;2.80;1.27;;;17.30;41.50;;;;;;5112639;28;20642;-74
2023/04/03 05:29:23;;;;;;;4.20;1.70;;;17.40;41.60;;;;;;5112865;28;20201;-74
2023/04/03 05:31:51;;;;;;;3.85;1.80;;;17.30;41.60;;;;;;5113012;28;20224;-74
2023/04/03 05:34:19;;;;;;;5.25;1.50;;;17.40;41.60;;;;;;5112747;28;20232;-74
2023/04/03 05:36:46;;;;;;;5.65;1.50;;;17.40;41.60;;;;;;5112565;28;20686;-74
2023/04/03 05:39:13;;;;;;;5.05;1.60;;;17.40;41.60;;;;;;5112546;28;20229;-74
2023/04/03 05:41:40;;;;;;;2.95;1.50;;;17.40;41.70;;;;;;5112576;28;20659;-74
2023/04/03 05:44:07;;;;;;;4.80;1.63;;;17.40;41.70;;;;;;5112829;28;20244;-74
2023/04/03 05:46:35;;;;;;;3.05;1.60;;;17.50;41.80;;;;;;5112574;28;20213;-74
2023/04/03 05:49:02;;;;;;;3.78;1.77;;;17.50;41.80;;;;;;5112353;28;20185;-74
2023/04/03 05:51:34;;;;;;;5.28;1.50;;;17.50;41.80;;;;;;5112599;28;20239;-74
2023/04/03 05:54:08;;;;;;;2.88;1.30;;;17.50;41.90;;;;;;5112300;28;20232;-74
2023/04/03 05:56:35;;;;;;;2.10;1.17;;;17.50;41.90;;;;;;5112755;28;20185;-74
2023/04/03 05:59:01;;;;;;;5.55;1.33;;;17.60;42.00;;;;;;5112774;28;20240;-74
2023/04/03 06:01:28;;;;;;;2.72;1.40;;;17.60;42.00;;;;;;5112538;28;20217;-74
2023/04/03 06:03:55;;;;;;;4.57;1.40;;;17.60;42.00;;;;;;5112514;28;20249;-75
2023/04/03 06:06:23;;;;;;;2.90;1.20;;;17.60;41.90;;;;;;5112624;28;20213;-74
2023/04/03 06:08:51;;;;;;;2.30;1.50;;;17.60;42.00;;;;;;5112323;28;20702;-74
2023/04/03 06:11:18;;;;;;;3.40;1.35;;;17.60;41.90;;;;;;5112214;28;20182;-74
2023/04/03 06:13:46;;;;;;;4.78;1.50;;;17.70;42.10;;;;;;5112090;28;20272;-74
2023/04/03 06:16:15;;;;;;;2.25;1.50;;;17.70;42.00;;;;;;5112439;28;20216;-74
2023/04/03 06:18:42;;;;;;;2.90;1.20;;;17.70;42.10;;;;;;5112249;28;20763;-74
2023/04/03 06:21:09;;;;;;;2.58;1.80;;;17.70;42.00;;;;;;5113058;28;20286;-74
2023/04/03 06:23:36;;;;;;;2.95;1.67;;;17.70;42.00;;;;;;5116094;28;20706;-74
2023/04/03 06:26:05;;;;;;;2.83;1.45;;;17.80;42.10;;;;;;5116425;28;20669;-74
2023/04/03 06:28:32;;;;;;;4.35;1.60;;;17.80;42.10;;;;;;5116172;28;20304;-74
2023/04/03 06:30:59;;;;;;;3.35;1.52;;;17.80;42.00;;;;;;5115946;28;20623;-74
2023/04/03 06:33:26;;;;;;;2.67;1.38;;;17.80;42.00;;;;;;5116043;27;20233;-74
2023/04/03 06:35:58;;;;;;;3.35;1.52;;;17.80;42.00;;;;;;5116043;28;20220;-75
2023/04/03 06:38:25;;;;;;;2.85;1.30;;;17.80;42.00;;;;;;5115584;28;20732;-74
2023/04/03 06:40:52;;;;;;;2.88;1.50;;;17.80;42.60;;;;;;5116022;28;20213;-74
2023/04/03 06:43:21;;;;;;;3.47;1.48;;;17.80;42.00;;;;;;5115785;28;20216;-74
2023/04/03 06:45:48;;;;;;;2.70;1.60;;;17.90;42.10;;;;;;5115772;28;20541;-74
2023/04/03 06:48:15;;;;;;;2.17;1.38;;;17.90;42.00;;;;;;5115500;28;20678;-74
2023/04/03 06:50:42;;;;;;;3.90;1.77;;;17.90;42.00;;;;;;5115378;28;20228;-74
2023/04/03 06:53:10;;;;;;;2.70;1.58;;;17.90;42.00;;;;;;5115624;28;20323;-74
2023/04/03 06:55:37;;;;;;;4.00;1.55;;;17.90;41.90;;;;;;5115411;28;20667;-75
2023/04/03 06:58:04;;;;;;;2.55;1.73;;;17.90;41.90;;;;;;5115617;28;20186;-74
2023/04/03 07:00:33;;;;;;;3.70;1.75;;;17.90;41.90;;;;;;5114449;28;20220;-74
2023/04/03 07:03:00;;;;;;;3.05;1.58;;;18.00;42.00;;;;;;5115573;28;20562;-74
2023/04/03 07:05:27;;;;;;;5.53;1.85;;;18.00;41.90;;;;;;5115542;28;20213;-75
2023/04/03 07:07:55;;;;;;;3.72;1.55;;;18.00;41.90;;;;;;5115391;28;20193;-75
2023/04/03 07:10:22;;;;;;;2.08;1.25;;;18.00;41.80;;;;;;5115448;28;20247;-75
2023/04/03 07:12:49;;;;;;;3.10;1.50;;;18.00;41.80;;;;;;5115259;28;20675;-74
2023/04/03 07:15:16;;;;;;;1.95;1.38;;;18.00;41.80;;;;;;5114942;28;20662;-74
2023/04/03 07:17:44;;;;;;;3.20;1.55;;;18.00;41.80;;;;;;5115308;28;20228;-75
2023/04/03 07:20:12;;;;;;;3.00;1.40;;;18.00;41.80;;;;;;5115078;28;20245;-74
2023/04/03 07:22:39;;;;;;;2.50;1.55;;;18.10;41.80;;;;;;5114847;27;20229;-74
2023/04/03 07:25:07;;;;;;;4.05;1.50;;;18.00;41.70;;;;;;5114662;28;20258;-75
2023/04/03 07:27:34;;;;;;;3.65;1.40;;;18.10;41.70;;;;;;5115032;27;20571;-74
2023/04/03 07:30:01;;;;;;;3.90;1.80;;;18.10;41.80;;;;;;5115138;28;20209;-74
2023/04/03 07:32:29;;;;;;;3.47;1.70;;;18.10;41.70;;;;;;5114384;28;20275;-74
2023/04/03 07:34:57;;;;;;;2.80;1.38;;;18.10;41.60;;;;;;5114927;28;20209;-75
2023/04/03 07:37:24;;;;;;;3.72;1.60;;;18.10;41.60;;;;;;5115051;28;20240;-74
2023/04/03 07:39:52;;;;;;;4.43;1.60;;;18.10;41.60;;;;;;5114758;28;20217;-74
2023/04/03 07:42:18;;;;;;;3.20;1.70;;;18.10;41.60;;;;;;5114722;28;20277;-75
2023/04/03 07:44:46;;;;;;;2.05;1.33;;;18.10;41.60;;;;;;5114717;28;20260;-74
2023/04/03 07:47:14;;;;;;;4.50;1.80;;;18.10;41.50;;;;;;5114775;28;20189;-75
2023/04/03 07:49:41;;;;;;;3.70;1.60;;;18.10;41.50;;;;;;5114807;28;20224;-75
2023/04/03 07:52:09;;;;;;;5.10;2.00;;;18.20;41.60;;;;;;5114263;28;20655;-74
2023/04/03 07:54:37;;;;;;;3.03;1.67;;;18.20;41.50;;;;;;5114264;28;20722;-74
2023/04/03 07:57:05;;;;;;;2.85;1.52;;;18.20;41.50;;;;;;5114561;28;20217;-74
2023/04/03 07:59:32;;;;;;;2.67;1.55;;;18.20;41.50;;;;;;5114289;28;20725;-74
2023/04/03 08:01:59;;;;;;;3.40;1.60;;;18.20;41.50;;;;;;5114400;28;20232;-75
2023/04/03 08:04:26;;;;;;;2.72;1.67;;;18.20;41.50;;;;;;5113918;28;20257;-74
2023/04/03 08:06:53;;;;;;;3.70;2.00;;;18.20;41.50;;;;;;5114299;28;20651;-75
2023/04/03 08:09:22;;;;;;;3.35;1.60;;;18.30;41.60;;;;;;5114321;28;20262;-74
2023/04/03 08:11:52;;;;;;;2.97;1.60;;;18.30;41.60;;;;;;5114249;28;20217;-74
2023/04/03 08:14:20;;;;;;;2.90;1.50;;;18.30;41.50;;;;;;5113735;28;20715;-74
2023/04/03 08:16:48;;;;;;;3.80;1.83;;;18.20;41.40;;;;;;5114064;28;20185;-75
2023/04/03 08:19:17;;;;;;;2.65;1.35;;;18.30;41.40;;;;;;5114080;28;20285;-74
2023/04/03 08:21:45;;;;;;;2.30;1.63;;;18.20;41.30;;;;;;5113585;28;20272;-75
2023/04/03 08:24:12;;;;;;;3.03;1.80;;;18.30;41.30;;;;;;5114185;28;20245;-75
2023/04/03 08:26:40;;;;;;;2.65;1.45;;;18.30;41.30;;;;;;5113542;28;20231;-74
2023/04/03 08:29:07;;;;;;;3.17;1.52;;;18.30;41.30;;;;;;5113723;28;20256;-74
2023/04/03 08:31:34;;;;;;;3.00;1.60;;;18.30;41.30;;;;;;5113752;28;20434;-75
2023/04/03 08:34:01;;;;;;;3.63;1.52;;;18.30;41.30;;;;;;5113589;28;20309;-74
2023/04/03 08:36:30;;;;;;;2.20;1.50;;;18.30;41.30;;;;;;5113749;28;20242;-75
2023/04/03 08:38:58;;;;;;;2.20;1.70;;;18.30;41.20;;;;;;5113586;28;20240;-74
2023/04/03 08:41:31;;;;;;;2.55;1.60;;;18.40;41.30;;;;;;5113695;28;20284;-75
2023/04/03 08:44:19;;;;;;;3.40;1.67;;;18.40;41.20;;;;;;5112749;28;20217;-74
2023/04/03 08:47:12;;;;;;;3.72;2.00;;;18.40;41.20;;;;;;5112918;28;20195;-74
2023/04/03 08:49:46;;;;;;;3.20;1.88;;;18.30;41.10;;;;;;5113669;28;20217;-75
2023/04/03 08:52:16;;;;;;;2.47;1.92;;;18.40;41.20;;;;;;5113394;28;20188;-75
2023/04/03 08:54:51;;;;;;;3.72;1.58;;;18.40;41.10;;;;;;5113391;28;20271;-75
2023/04/03 08:57:24;;;;;;;3.05;1.70;;;18.40;41.10;;;;;;5113042;28;20562;-74
2023/04/03 08:59:52;;;;;;;2.88;1.92;;;18.40;41.10;;;;;;5113412;28;20248;-75
2023/04/03 09:02:26;;;;;;;2.67;1.85;;;18.40;40.80;;;;;;5113142;28;20185;-75
2023/04/03 09:04:53;;;;;;;40.47;3.15;;;18.40;40.90;;;;;;5113228;28;20305;-74
2023/04/03 09:07:27;;;;;;;2.63;1.90;;;18.40;41.60;;;;;;5113175;28;20217;-77
2023/04/03 09:09:56;;;;;;;2.90;2.17;;;18.40;40.70;;;;;;5112000;28;20336;-79
2023/04/03 09:12:28;;;;;;;2.60;1.95;;;18.40;41.00;;;;;;5113020;28;20189;-77
2023/04/03 09:15:05;;;;;;;6.28;1.98;;;18.50;41.10;;;;;;5112607;28;20710;-77
2023/04/03 09:17:43;;;;;;;3.50;1.77;;;18.50;41.10;;;;;;5112660;28;20191;-75
2023/04/03 09:20:20;;;;;;;3.72;1.98;;;18.50;40.70;;;;;;5113124;28;20215;-77
2023/04/03 09:22:48;;;;;;;5.15;2.20;;;18.50;40.60;;;;;;5112729;28;20228;-76
2023/04/03 09:25:17;;;;;;;5.45;2.40;;;18.60;41.30;;;;;;5112874;28;20231;-76
2023/04/03 09:27:45;;;;;;;3.55;1.83;;;18.50;42.80;;;;;;5112572;28;20218;-75
2023/04/03 09:30:16;;;;;;;4.55;1.98;;;18.60;43.10;;;;;;5112859;28;20790;-75
2023/04/03 09:32:46;;;;;;;4.78;1.92;;;18.60;42.90;;;;;;5112821;28;20272;-75
2023/04/03 09:35:22;;;;;;;3.92;1.98;;;18.60;42.80;;;;;;5112768;28;20271;-75
2023/04/03 09:37:52;;;;;;;3.35;1.98;;;18.60;42.80;;;;;;5112720;28;20223;-75
2023/04/03 09:40:35;;;;;;;3.53;1.85;;;18.60;42.70;;;;;;5112697;28;20299;-75
2023/04/03 09:43:04;;;;;;;2.45;1.75;;;18.60;42.70;;;;;;5112663;28;20276;-75
2023/04/03 09:45:33;;;;;;;2.97;1.90;;;18.60;42.60;;;;;;5112473;28;20263;-75
2023/04/03 09:48:09;;;;;;;2.67;1.92;;;18.60;42.60;;;;;;5112366;28;20185;-74
2023/04/03 09:50:37;;;;;;;3.53;1.63;;;18.70;42.70;;;;;;5112498;28;20625;-75
2023/04/03 09:53:08;;;;;;;3.28;1.48;;;18.60;42.50;;;;;;5112594;28;20213;-76
2023/04/03 09:55:43;;;;;;;4.07;1.80;;;18.70;42.50;;;;;;5114296;28;20478;-75
2023/04/03 09:58:26;;;;;;;3.75;1.70;;;18.70;42.50;;;;;;5116712;28;20189;-75
2023/04/03 10:00:58;;;;;;;3.03;1.63;;;18.70;42.40;;;;;;5116767;28;20273;-75
2023/04/03 10:03:29;;;;;;;2.20;1.50;;;18.70;42.30;;;;;;5116462;28;20189;-75
2023/04/03 10:05:57;;;;;;;2.47;1.50;;;18.70;42.20;;;;;;5116687;28;20321;-75
2023/04/03 10:08:27;;;;;;;2.80;1.85;;;18.70;42.20;;;;;;5116495;28;20280;-75
2023/04/03 10:11:09;;;;;;;3.13;1.80;;;18.70;42.10;;;;;;5116558;28;20213;-75
2023/04/03 10:13:37;;;;;;;4.10;1.85;;;18.70;42.10;;;;;;5116068;28;20249;-75
2023/04/03 10:16:09;;;;;;;2.28;1.50;;;18.70;42.00;;;;;;5116546;28;20197;-75
2023/04/03 10:18:44;;;;;;;3.60;1.70;;;18.70;42.00;;;;;;5116305;28;20270;-75
2023/04/03 10:21:17;;;;;;;2.13;1.63;;;18.70;41.90;;;;;;5116275;28;20297;-76
2023/04/03 10:23:51;;;;;;;2.60;1.90;;;18.70;41.90;;;;;;5116155;28;20271;-74
2023/04/03 10:26:27;;;;;;;2.40;1.83;;;18.70;41.90;;;;;;5116026;28;20311;-75
2023/04/03 10:29:03;;;;;;;2.95;1.80;;;18.70;41.90;;;;;;5115904;28;20639;-75
2023/04/03 10:31:38;;;;;;;4.40;2.00;;;18.70;41.80;;;;;;5116207;28;20192;-76
2023/04/03 10:34:12;;;;;;;4.88;1.73;;;18.70;41.70;;;;;;5116014;28;20229;-75
2023/04/03 10:36:44;;;;;;;3.78;1.95;;;18.70;41.70;;;;;;5116105;28;20644;-75
2023/04/03 10:39:24;;;;;;;2.67;1.85;;;18.70;41.70;;;;;;5115765;28;20209;-75
2023/04/03 10:42:02;;;;;;;2.95;2.47;;;18.80;41.70;;;;;;5116007;28;20189;-76
2023/04/03 10:44:36;;;;;;;3.75;1.80;;;18.80;41.70;;;;;;5115935;28;20208;-76
2023/04/03 10:47:13;;;;;;;2.80;2.03;;;18.80;41.60;;;;;;5115881;28;20230;-76
2023/04/03 10:49:51;;;;;;;2.10;1.90;;;18.80;41.60;;;;;;5116026;28;20352;-75
2023/04/03 10:52:23;;;;;;;2.20;1.90;;;18.70;41.50;;;;;;5115723;28;20215;-73
2023/04/03 10:54:59;;;;;;;5.43;1.90;;;18.80;41.50;;;;;;5115779;28;20595;-75
2023/04/03 10:57:27;;;;;;;3.25;1.90;;;18.70;41.40;;;;;;5115615;28;20209;-75
2023/04/03 10:59:58;;;;;;;3.13;2.00;;;18.80;41.40;;;;;;5115669;28;20252;-73
2023/04/03 11:02:29;;;;;;;1.92;1.73;;;18.80;41.40;;;;;;5115235;28;20719;-75
2023/04/03 11:05:02;;;;;;;5.10;2.20;;;18.80;41.40;;;;;;5115217;28;20248;-75
2023/04/03 11:07:34;;;;;;;3.47;2.10;;;18.80;41.40;;;;;;5114682;28;20246;-75
2023/04/03 11:10:06;;;;;;;4.03;1.67;;;18.80;41.30;;;;;;5115282;28;20748;-75
2023/04/03 11:12:41;;;;;;;1.50;1.30;;;18.80;41.30;;;;;;5115378;28;20212;-75
2023/04/03 11:15:14;;;;;;;2.63;1.80;;;18.80;41.30;;;;;;5114921;28;20271;-75
2023/04/03 11:17:50;;;;;;;5.72;1.85;;;18.80;41.30;;;;;;5115246;28;20214;-75
2023/04/03 11:20:20;;;;;;;5.13;2.20;;;18.80;41.20;;;;;;5115076;28;20217;-75
2023/04/03 11:22:51;;;;;;;2.78;1.70;;;18.80;41.20;;;;;;5114726;28;20702;-74
2023/04/03 11:25:23;;;;;;;2.50;1.75;;;18.80;41.20;;;;;;5115267;28;20217;-75
2023/04/03 11:27:55;;;;;;;2.00;1.65;;;18.80;41.10;;;;;;5114627;28;20192;-75
2023/04/03 11:30:27;;;;;;;1.92;1.73;;;18.80;41.10;;;;;;5114904;28;20270;-76
2023/04/03 11:33:30;;;;;;;3.38;1.45;;;18.80;41.10;;;;;;5115023;28;20181;-75
2023/04/03 11:36:01;;;;;;;2.10;1.60;;;18.80;41.00;;;;;;5114238;28;20238;-74
2023/04/03 11:38:35;;;;;;;2.95;1.55;;;18.80;41.00;;;;;;5114786;28;20258;-75
2023/04/03 11:41:03;;;;;;;3.03;1.70;;;18.80;40.90;;;;;;5114817;28;20189;-76
2023/04/03 11:43:32;;;;;;;1.90;1.70;;;18.90;41.00;;;;;;5114635;28;20269;-75
2023/04/03 11:46:01;;;;;;;1.92;1.50;;;18.80;40.90;;;;;;5114756;28;20229;-75
2023/04/03 11:48:59;;;;;;;2.97;1.55;;;18.80;40.90;;;;;;5114164;28;20281;-75
2023/04/03 11:51:45;;;;;;;2.58;1.55;;;18.80;40.80;;;;;;5051447;28;20227;-75
2023/04/03 11:54:48;;;;;;;1.65;1.35;;;18.90;40.90;;;;;;5050803;28;20329;-76
2023/04/03 11:57:46;;;;;;;2.15;1.50;;;18.90;40.90;;;;;;5042342;28;20199;-76
2023/04/03 12:00:51;;;;;;;2.65;1.60;;;18.90;40.90;;;;;;5051344;28;20223;-76
2023/04/03 12:03:54;;;;;;;3.08;2.00;;;18.90;40.80;;;;;;5047108;28;20219;-75
2023/04/03 12:06:54;;;;;;;2.05;1.42;;;18.90;40.80;;;;;;5033158;28;20191;-75
2023/04/03 12:10:00;;;;;;;3.03;1.70;;;18.90;40.80;;;;;;5051084;28;20741;-75
2023/04/03 12:12:58;;;;;;;2.70;1.60;;;18.80;40.70;;;;;;5051293;28;20196;-76
2023/04/03 12:15:48;;;;;;;2.75;1.55;;;18.80;40.70;;;;;;5050658;28;20731;-75
2023/04/03 12:18:52;;;;;;;2.40;1.58;;;18.80;40.70;;;;;;5050957;28;20202;-75
2023/04/03 12:21:19;;;;;;;1.52;1.38;;;18.90;40.80;;;;;;5051013;28;20782;-75
2023/04/03 12:24:31;;;;;;;3.15;1.55;;;18.90;40.80;;;;;;5050976;28;20231;-75
2023/04/03 12:27:17;;;;;;;2.38;1.65;;;18.90;40.80;;;;;;5093921;28;20239;-75
2023/04/03 12:29:51;;;;;;;3.15;1.85;;;18.90;40.70;;;;;;5113975;28;20244;-76
2023/04/03 12:32:35;;;;;;;2.88;1.60;;;18.80;40.60;;;;;;5113616;28;20592;-75
2023/04/03 12:35:15;;;;;;;4.13;1.70;;;18.90;40.70;;;;;;5113691;28;20274;-75
2023/04/03 12:38:16;;;;;;;3.22;1.80;;;18.90;40.80;;;;;;5113825;28;20196;-75
2023/04/03 12:40:52;;;;;;;2.40;1.50;;;18.90;40.70;;;;;;5113917;28;20244;-75
2023/04/03 12:43:35;;;;;;;2.80;1.52;;;18.90;40.70;;;;;;5113589;28;20185;-76
2023/04/03 12:46:11;;;;;;;2.95;1.70;;;18.90;40.60;;;;;;5113375;28;20697;-75
2023/04/03 12:48:47;;;;;;;2.63;1.40;;;18.90;40.50;;;;;;5113233;28;20653;-75
2023/04/03 12:51:16;;;;;;;3.80;1.67;;;18.90;41.10;;;;;;5113503;27;20220;-76
2023/04/03 12:53:45;;;;;;;3.83;1.90;;;18.90;40.50;;;;;;5113292;28;20197;-75
2023/04/03 12:56:25;;;;;;;3.05;1.60;;;18.90;40.40;;;;;;5113454;28;20228;-75
2023/04/03 12:58:55;;;;;;;3.00;1.50;;;18.90;40.40;;;;;;5113348;28;20239;-75
2023/04/03 13:01:25;;;;;;;4.55;1.75;;;18.90;40.40;;;;;;5113412;28;20185;-75
2023/04/03 13:03:55;;;;;;;3.05;1.80;;;18.90;40.40;;;;;;5113110;28;20284;-75
2023/04/03 13:06:25;;;;;;;2.83;1.45;;;18.90;40.40;;;;;;5113355;28;20217;-75